Time;durP1;ratioP1;P1;durP2;ratioP2;P2;SDS_P1;SDS_P2;PMS_P1;PMS_P2;Temp;Humidity;BMP_temperature;BMP_pressure;BME280_temperature;BME280_humidity;BME280_pressure;Samples;Min_cycle;Max_cycle;Signal;HPM_P1;HPM_P2
2022/01/17 00:01:14;;;;;;;13.38;1.65;;;4.50;1.00;;;;;;5053314;28;20017;-78
2022/01/17 00:03:40;;;;;;;11.35;1.40;;;4.50;1.00;;;;;;5053380;28;20843;-78
2022/01/17 00:06:06;;;;;;;17.70;1.95;;;4.50;1.00;;;;;;5057579;28;20021;-78
2022/01/17 00:08:33;;;;;;;10.10;1.50;;;4.30;1.00;;;;;;5057319;28;20021;-78
2022/01/17 00:10:59;;;;;;;13.52;1.77;;;4.30;1.00;;;;;;5057189;28;20462;-78
2022/01/17 00:13:27;;;;;;;7.38;1.73;;;4.30;99.90;;;;;;5057213;28;20620;-78
2022/01/17 00:15:58;;;;;;;12.30;1.40;;;4.20;99.90;;;;;;5057560;28;20014;-78
2022/01/17 00:18:41;;;;;;;11.68;1.40;;;4.10;1.00;;;;;;5057422;28;20021;-78
2022/01/17 00:21:06;;;;;;;11.98;1.02;;;4.00;1.00;;;;;;5057512;28;20117;-78
2022/01/17 00:26:54;;;;;;;9.93;1.50;;;3.70;62.20;;;;;;5057528;28;20024;-78
2022/01/17 00:29:19;;;;;;;11.05;1.73;;;3.60;99.90;;;;;;5056861;28;20029;-78
2022/01/17 00:31:45;;;;;;;12.82;1.60;;;3.60;99.90;;;;;;5057005;28;20104;-78
2022/01/17 00:34:10;;;;;;;18.42;2.33;;;3.60;99.90;;;;;;5056946;28;20096;-78
2022/01/17 00:36:36;;;;;;;13.93;1.48;;;3.60;99.90;;;;;;5056934;28;20097;-78
2022/01/17 00:39:01;;;;;;;11.65;1.50;;;3.50;99.90;;;;;;5056685;28;20119;-78
2022/01/17 00:41:27;;;;;;;11.23;1.58;;;3.50;99.90;;;;;;5056800;28;20099;-78
2022/01/17 00:43:52;;;;;;;10.52;0.95;;;3.50;99.90;;;;;;5055378;28;20021;-78
2022/01/17 00:46:18;;;;;;;9.27;1.42;;;3.60;99.90;;;;;;5056336;28;20023;-78
2022/01/17 00:48:43;;;;;;;9.60;1.48;;;3.80;99.90;;;;;;5056522;28;20017;-78
2022/01/17 00:51:09;;;;;;;14.73;1.40;;;3.90;99.90;;;;;;5056550;28;20052;-78
2022/01/17 00:53:37;;;;;;;8.30;1.48;;;3.90;99.90;;;;;;5055208;28;20119;-78
2022/01/17 00:56:04;;;;;;;13.10;1.52;;;3.80;99.90;;;;;;5055270;28;20495;-78
2022/01/17 00:58:30;;;;;;;13.52;1.42;;;4.00;99.90;;;;;;5056524;28;20353;-78
2022/01/17 01:00:55;;;;;;;18.42;1.58;;;4.10;99.90;;;;;;5055061;28;20538;-78
2022/01/17 01:03:21;;;;;;;10.25;2.15;;;4.20;99.90;;;;;;5056223;28;20029;-78
2022/01/17 01:05:47;;;;;;;10.55;1.70;;;4.10;99.90;;;;;;5056321;28;20021;-78
2022/01/17 01:08:12;;;;;;;17.23;1.67;;;4.10;99.90;;;;;;5056222;28;20100;-78
2022/01/17 01:10:38;;;;;;;11.70;2.50;;;4.10;99.90;;;;;;5056194;28;20060;-78
2022/01/17 01:13:04;;;;;;;13.48;1.60;;;4.10;99.90;;;;;;5056149;28;20075;-78
2022/01/17 01:15:47;;;;;;;20.58;1.52;;;4.20;99.90;;;;;;5055616;28;20029;-78
2022/01/17 01:18:17;;;;;;;14.20;1.63;;;4.10;99.90;;;;;;5054724;28;20472;-78
2022/01/17 01:29:02;;;;;;;12.70;2.30;;;3.90;99.90;;;;;;5034099;28;20036;-77
2022/01/17 01:31:41;;;;;;;9.82;1.90;;;3.80;99.90;;;;;;5046739;28;20037;-78
2022/01/17 01:34:07;;;;;;;11.05;2.08;;;3.90;99.90;;;;;;5054733;28;20025;-78
2022/01/17 01:36:34;;;;;;;19.40;2.10;;;3.80;99.90;;;;;;5055898;28;20159;-78
2022/01/17 01:39:00;;;;;;;13.52;1.98;;;3.70;99.90;;;;;;5055863;28;20067;-78
2022/01/17 01:41:25;;;;;;;9.50;1.63;;;3.60;99.90;;;;;;5055561;28;20013;-78
2022/01/17 01:43:51;;;;;;;14.23;1.50;;;3.60;99.90;;;;;;5054356;28;20021;-78
2022/01/17 01:46:19;;;;;;;10.98;1.58;;;3.60;99.90;;;;;;5055538;28;20025;-78
2022/01/17 01:48:45;;;;;;;13.32;1.65;;;3.70;99.90;;;;;;5055730;28;20017;-78
2022/01/17 01:51:11;;;;;;;9.43;1.30;;;3.70;99.90;;;;;;5055446;28;20385;-78
2022/01/17 01:53:37;;;;;;;15.52;1.75;;;3.70;99.90;;;;;;5055595;28;20464;-78
2022/01/17 01:56:03;;;;;;;17.70;1.40;;;3.60;99.90;;;;;;5055564;28;20021;-78
2022/01/17 01:58:29;;;;;;;9.65;1.50;;;3.50;99.90;;;;;;5055207;28;20028;-78
2022/01/17 02:00:55;;;;;;;7.93;1.25;;;3.60;99.90;;;;;;5055543;28;20032;-78
2022/01/17 02:03:21;;;;;;;17.02;1.30;;;3.60;99.90;;;;;;5055236;28;20100;-78
2022/01/17 02:05:46;;;;;;;14.95;2.15;;;3.70;99.90;;;;;;5055133;28;20055;-78
2022/01/17 02:08:13;;;;;;;13.57;1.75;;;3.50;99.90;;;;;;5055092;28;20029;-78
2022/01/17 02:10:38;;;;;;;14.18;2.05;;;3.70;99.90;;;;;;5054711;28;20129;-78
2022/01/17 02:13:04;;;;;;;9.30;1.48;;;3.70;99.90;;;;;;5055422;28;20473;-78
2022/01/17 02:15:30;;;;;;;18.42;1.40;;;3.70;99.90;;;;;;5054911;28;20025;-78
2022/01/17 02:17:57;;;;;;;10.38;1.38;;;3.80;99.90;;;;;;5053783;28;20032;-78
2022/01/17 02:20:35;;;;;;;15.68;1.58;;;3.80;99.90;;;;;;5055201;28;20111;-78
2022/01/17 02:23:04;;;;;;;19.33;2.50;;;3.80;99.90;;;;;;5055259;28;20028;-78
2022/01/17 02:25:30;;;;;;;10.05;1.48;;;3.70;99.90;;;;;;5054973;28;20027;-78
2022/01/17 02:27:56;;;;;;;12.55;1.75;;;3.80;99.90;;;;;;5053616;28;20033;-78
2022/01/17 02:30:23;;;;;;;6.53;1.80;;;3.80;99.90;;;;;;5054492;28;20021;-78
2022/01/17 02:32:50;;;;;;;9.07;1.67;;;3.60;99.90;;;;;;5054870;28;20028;-78
2022/01/17 02:35:19;;;;;;;17.80;1.90;;;3.60;99.90;;;;;;5053396;28;20072;-78
2022/01/17 02:37:45;;;;;;;10.45;1.30;;;3.60;99.90;;;;;;5054703;28;20086;-78
2022/01/17 02:40:12;;;;;;;8.18;1.10;;;3.70;99.90;;;;;;5054574;28;20025;-78
2022/01/17 02:42:38;;;;;;;10.05;1.27;;;3.70;99.90;;;;;;5054421;28;20418;-78
2022/01/17 02:47:55;;;;;;;9.70;1.40;;;3.70;99.90;;;;;;5054654;28;20102;-78
2022/01/17 02:50:50;;;;;;;8.82;1.42;;;3.90;99.90;;;;;;5054112;28;20025;-78
2022/01/17 02:53:16;;;;;;;7.38;1.83;;;4.20;99.90;;;;;;5054213;28;20029;-78
2022/01/17 02:56:03;;;;;;;10.60;1.17;;;4.40;99.90;;;;;;5054063;28;20052;-78
2022/01/17 02:58:33;;;;;;;10.10;1.40;;;4.40;99.90;;;;;;5054100;28;20032;-78
2022/01/17 03:01:01;;;;;;;11.32;1.33;;;4.50;99.90;;;;;;5052861;28;20032;-78
2022/01/17 03:06:48;;;;;;;6.03;0.90;;;4.80;99.90;;;;;;5054208;28;20167;-78
2022/01/17 03:12:35;;;;;;;12.25;1.38;;;4.80;99.90;;;;;;5042855;28;20572;-78
2022/01/17 03:15:01;;;;;;;6.40;1.00;;;5.00;99.90;;;;;;5053858;28;20115;-78
2022/01/17 03:17:27;;;;;;;9.25;1.25;;;5.10;99.90;;;;;;5053737;28;20047;-78
2022/01/17 03:19:56;;;;;;;5.13;0.82;;;4.90;99.90;;;;;;5052361;28;20378;-78
2022/01/17 03:22:22;;;;;;;14.55;1.50;;;4.80;99.90;;;;;;5053842;28;20100;-78
2022/01/17 03:24:54;;;;;;;12.63;1.60;;;4.70;99.90;;;;;;5052289;28;20045;-78
2022/01/17 03:27:19;;;;;;;22.20;3.85;;;4.70;99.90;;;;;;5053574;28;20029;-78
2022/01/17 03:29:45;;;;;;;5.70;1.27;;;4.70;99.90;;;;;;5053576;28;20373;-78
2022/01/17 03:32:10;;;;;;;11.55;1.00;;;4.60;99.90;;;;;;5053610;28;20029;-78
2022/01/17 03:34:38;;;;;;;4.63;0.63;;;4.80;99.90;;;;;;5053560;28;20028;-78
2022/01/17 03:37:03;;;;;;;10.65;1.30;;;4.80;99.90;;;;;;5053902;28;20024;-78
2022/01/17 03:39:29;;;;;;;7.70;1.40;;;4.90;99.90;;;;;;5053126;28;20389;-78
2022/01/17 03:41:54;;;;;;;25.90;2.55;;;4.70;99.90;;;;;;5053474;28;20025;-78
2022/01/17 03:44:20;;;;;;;15.02;1.50;;;4.70;99.90;;;;;;5053328;28;20021;-78
2022/01/17 03:46:45;;;;;;;7.05;1.15;;;4.60;99.90;;;;;;5052061;28;20736;-78
2022/01/17 03:49:11;;;;;;;15.63;2.05;;;4.60;99.90;;;;;;5053247;28;20067;-78
2022/01/17 03:51:36;;;;;;;8.77;2.10;;;4.60;99.90;;;;;;5053339;28;20021;-78
2022/01/17 03:54:02;;;;;;;11.00;1.33;;;4.60;99.90;;;;;;5053300;28;20417;-78
2022/01/17 03:56:27;;;;;;;14.75;1.83;;;4.60;99.90;;;;;;5053263;28;20054;-78
2022/01/17 03:58:53;;;;;;;10.50;1.50;;;4.70;99.90;;;;;;5053245;28;20021;-78
2022/01/17 04:01:19;;;;;;;10.30;1.10;;;4.80;99.90;;;;;;5053467;28;20025;-78
2022/01/17 04:03:46;;;;;;;9.57;1.50;;;4.90;99.90;;;;;;5053469;28;20019;-78
2022/01/17 04:06:14;;;;;;;13.57;1.42;;;5.00;99.90;;;;;;5053640;28;20457;-78
2022/01/17 04:08:41;;;;;;;9.65;1.60;;;5.00;99.90;;;;;;5053406;28;20056;-78
2022/01/17 04:11:06;;;;;;;14.10;1.55;;;5.00;99.90;;;;;;5053323;28;20057;-78
2022/01/17 04:13:34;;;;;;;9.77;1.88;;;5.10;99.90;;;;;;5053028;28;20064;-78
2022/01/17 04:16:00;;;;;;;14.35;1.67;;;5.20;99.90;;;;;;5053999;28;20082;-78
2022/01/17 04:18:25;;;;;;;15.18;1.95;;;5.20;99.90;;;;;;5053000;28;20021;-78
2022/01/17 04:21:02;;;;;;;12.00;1.70;;;5.20;99.90;;;;;;5052991;28;20075;-78
2022/01/17 04:23:28;;;;;;;16.60;2.55;;;5.30;99.90;;;;;;5053337;28;20067;-78
2022/01/17 04:25:54;;;;;;;12.60;3.05;;;5.30;99.90;;;;;;5053081;28;20029;-78
2022/01/17 04:28:19;;;;;;;12.80;2.45;;;5.20;99.90;;;;;;5052948;28;20380;-78
2022/01/17 04:30:45;;;;;;;14.52;2.40;;;5.10;99.90;;;;;;5052742;28;20468;-78
2022/01/17 04:33:12;;;;;;;12.90;2.42;;;5.20;99.90;;;;;;5052904;28;20079;-78
2022/01/17 04:35:38;;;;;;;14.02;2.35;;;5.40;99.90;;;;;;5052778;28;20112;-78
2022/01/17 04:38:13;;;;;;;10.85;2.33;;;5.50;99.90;;;;;;5052937;28;20029;-78
2022/01/17 04:40:40;;;;;;;14.63;3.33;;;5.60;99.90;;;;;;5052837;28;20135;-78
2022/01/17 04:45:55;;;;;;;11.73;2.17;;;5.80;99.90;;;;;;5051878;28;20086;-78
2022/01/17 04:48:20;;;;;;;12.40;2.47;;;5.80;99.90;;;;;;5051579;28;20021;-78
2022/01/17 04:50:46;;;;;;;14.73;2.53;;;5.80;99.90;;;;;;5052881;28;20082;-78
2022/01/17 04:53:16;;;;;;;13.02;2.63;;;5.90;99.90;;;;;;5056605;28;20033;-78
2022/01/17 04:55:42;;;;;;;16.65;2.67;;;5.90;99.90;;;;;;5057085;28;20029;-78
2022/01/17 04:58:07;;;;;;;13.02;2.67;;;6.00;99.90;;;;;;5056423;28;20036;-78
2022/01/17 05:00:33;;;;;;;15.88;2.60;;;6.00;99.90;;;;;;5056423;28;20100;-78
2022/01/17 05:02:58;;;;;;;16.95;3.10;;;6.10;99.90;;;;;;5056342;28;20024;-78
2022/01/17 05:05:24;;;;;;;15.50;3.28;;;6.10;99.90;;;;;;5056249;28;20423;-78
2022/01/17 05:07:49;;;;;;;22.80;3.25;;;6.00;99.90;;;;;;5056475;28;20021;-78
2022/01/17 05:10:18;;;;;;;17.15;3.58;;;6.10;99.90;;;;;;5056172;28;20362;-78
2022/01/17 05:12:44;;;;;;;18.33;3.80;;;6.00;99.90;;;;;;5056338;28;20045;-79
2022/01/17 05:18:13;;;;;;;16.83;3.20;;;5.70;99.90;;;;;;5056562;28;20040;-78
2022/01/17 05:20:40;;;;;;;10.15;3.20;;;5.70;99.90;;;;;;5056366;28;20036;-78
2022/01/17 05:23:06;;;;;;;13.35;3.47;;;5.80;99.90;;;;;;5056022;28;20037;-78
2022/01/17 05:25:32;;;;;;;17.20;3.40;;;5.90;99.90;;;;;;5055602;28;20053;-78
2022/01/17 05:27:57;;;;;;;17.85;3.55;;;5.90;99.90;;;;;;5047772;28;20076;-78
2022/01/17 05:30:24;;;;;;;14.23;2.70;;;6.00;99.90;;;;;;5055742;28;20044;-78
2022/01/17 05:32:51;;;;;;;12.02;3.00;;;6.10;99.90;;;;;;5055771;28;20032;-78
2022/01/17 05:35:18;;;;;;;12.73;3.33;;;6.10;99.90;;;;;;5054581;28;20021;-78
2022/01/17 05:37:44;;;;;;;13.80;3.33;;;6.10;99.90;;;;;;5047590;28;20027;-78
2022/01/17 05:40:13;;;;;;;15.48;3.90;;;6.20;99.90;;;;;;5055694;28;20476;-78
2022/01/17 05:42:39;;;;;;;16.23;3.78;;;6.10;99.90;;;;;;5053628;28;20388;-78
2022/01/17 05:45:06;;;;;;;16.40;4.15;;;6.10;99.90;;;;;;5035241;28;20018;-79
2022/01/17 05:47:32;;;;;;;23.35;4.43;;;6.20;99.90;;;;;;5035458;28;20025;-79
2022/01/17 05:49:59;;;;;;;15.40;3.72;;;6.20;99.90;;;;;;5035221;28;20034;-79
2022/01/17 05:52:24;;;;;;;13.65;3.50;;;6.30;99.90;;;;;;5035511;28;20036;-78
2022/01/17 05:54:50;;;;;;;15.80;4.38;;;6.20;99.90;;;;;;5035144;28;20049;-79
2022/01/17 05:57:17;;;;;;;24.90;4.28;;;6.30;99.90;;;;;;5031530;28;20028;-78
2022/01/17 05:59:43;;;;;;;19.48;3.72;;;6.30;99.90;;;;;;5032465;28;20041;-79
2022/01/17 06:02:09;;;;;;;22.40;4.57;;;6.30;99.90;;;;;;5036804;28;20095;-79
2022/01/17 06:04:35;;;;;;;14.70;2.65;;;6.30;99.90;;;;;;5054992;28;20481;-79
2022/01/17 06:07:01;;;;;;;16.92;3.15;;;6.30;99.90;;;;;;5055462;28;20032;-79
2022/01/17 06:09:27;;;;;;;17.48;3.47;;;6.40;99.90;;;;;;5053780;28;20144;-79
2022/01/17 06:11:53;;;;;;;19.23;2.70;;;6.30;99.90;;;;;;5054140;28;20615;-79
2022/01/17 06:14:19;;;;;;;20.65;3.47;;;6.40;99.90;;;;;;5052787;28;20392;-79
2022/01/17 06:16:45;;;;;;;8.15;1.67;;;6.40;99.90;;;;;;5052493;28;20322;-79
2022/01/17 06:19:11;;;;;;;10.23;2.47;;;6.40;99.90;;;;;;5052473;28;20473;-79
2022/01/17 06:21:37;;;;;;;17.38;3.72;;;6.40;99.90;;;;;;5052518;28;20021;-79
2022/01/17 06:24:05;;;;;;;15.32;2.90;;;6.40;99.90;;;;;;5052439;28;20032;-79
2022/01/17 06:26:32;;;;;;;18.75;2.83;;;6.40;99.90;;;;;;5051958;28;20021;-79
2022/01/17 06:28:57;;;;;;;20.02;2.85;;;6.40;99.90;;;;;;5052200;28;20165;-79
2022/01/17 06:31:23;;;;;;;20.70;2.83;;;6.40;99.90;;;;;;5052189;28;20473;-79
2022/01/17 06:33:48;;;;;;;16.95;2.92;;;6.40;99.90;;;;;;5051092;28;20091;-79
2022/01/17 06:36:14;;;;;;;18.90;3.63;;;6.50;99.90;;;;;;5044162;28;20480;-79
2022/01/17 06:38:39;;;;;;;21.88;2.90;;;6.50;99.90;;;;;;5036123;28;20022;-79
2022/01/17 06:41:05;;;;;;;20.90;3.25;;;6.50;99.90;;;;;;5037456;28;20384;-79
2022/01/17 06:43:30;;;;;;;10.75;1.80;;;6.50;99.90;;;;;;5052147;28;20357;-79
2022/01/17 06:45:56;;;;;;;18.42;2.63;;;6.50;99.90;;;;;;5051861;28;20057;-78
2022/01/17 06:48:22;;;;;;;18.40;2.78;;;6.60;99.90;;;;;;5052008;28;20025;-79
2022/01/17 06:50:47;;;;;;;19.80;2.88;;;6.60;99.90;;;;;;5051711;28;20333;-79
2022/01/17 06:53:13;;;;;;;22.13;3.28;;;6.60;99.90;;;;;;5051496;28;20381;-78
2022/01/17 06:55:39;;;;;;;17.52;2.80;;;6.60;99.90;;;;;;5051358;28;20062;-79
2022/01/17 06:58:04;;;;;;;22.35;2.08;;;6.70;99.90;;;;;;5051578;28;20021;-78
2022/01/17 07:00:30;;;;;;;18.90;2.50;;;6.70;99.90;;;;;;5051732;28;20036;-78
2022/01/17 07:02:55;;;;;;;21.83;3.10;;;6.70;99.90;;;;;;5051594;28;20033;-78
2022/01/17 07:05:21;;;;;;;15.85;2.50;;;6.70;99.90;;;;;;5051624;28;20063;-78
2022/01/17 07:07:46;;;;;;;21.30;3.28;;;6.70;99.90;;;;;;5051682;28;20020;-78
2022/01/17 07:10:12;;;;;;;17.25;2.42;;;6.60;99.90;;;;;;5035599;28;20058;-78
2022/01/17 07:12:37;;;;;;;22.08;2.95;;;6.70;99.90;;;;;;5051145;28;20108;-79
2022/01/17 07:15:05;;;;;;;29.25;4.22;;;6.70;99.90;;;;;;5050585;28;20025;-79
2022/01/17 07:17:30;;;;;;;22.25;3.33;;;6.70;99.90;;;;;;5051564;28;20115;-78
2022/01/17 07:19:56;;;;;;;18.48;3.00;;;6.70;99.90;;;;;;5051466;28;20170;-78
2022/01/17 07:22:21;;;;;;;28.38;4.13;;;6.70;99.90;;;;;;5051039;28;20025;-79
2022/01/17 07:24:47;;;;;;;23.42;3.42;;;6.70;99.90;;;;;;5051246;28;20025;-78
2022/01/17 07:27:14;;;;;;;12.27;2.42;;;6.70;99.90;;;;;;5050099;28;20024;-78
2022/01/17 07:29:40;;;;;;;16.90;2.75;;;6.80;99.90;;;;;;5049880;28;20033;-78
2022/01/17 07:32:07;;;;;;;22.42;3.38;;;6.80;99.90;;;;;;5039483;28;20334;-79
2022/01/17 07:34:33;;;;;;;19.27;2.40;;;6.80;99.90;;;;;;5031077;28;20021;-78
2022/01/17 07:36:59;;;;;;;16.35;2.85;;;6.80;99.90;;;;;;5041039;28;20534;-78
2022/01/17 07:39:26;;;;;;;21.65;2.95;;;6.80;99.90;;;;;;5051132;28;20031;-79
2022/01/17 07:41:52;;;;;;;21.70;2.63;;;6.90;99.90;;;;;;5050770;28;20036;-78
2022/01/17 07:44:22;;;;;;;22.00;3.10;;;6.90;99.90;;;;;;5035815;28;20034;-79
2022/01/17 07:46:50;;;;;;;;;;;6.80;99.90;;;;;;5032450;28;20026;-79
2022/01/17 07:49:19;;;;;;;21.02;2.63;;;6.80;99.90;;;;;;5034533;28;19913;-79
2022/01/17 07:51:47;;;;;;;20.88;2.50;;;6.90;99.90;;;;;;5033715;28;20025;-78
2022/01/17 07:54:15;;;;;;;16.83;2.65;;;6.90;99.90;;;;;;5033358;28;20026;-78
2022/01/17 07:56:44;;;;;;;18.00;2.60;;;7.00;99.90;;;;;;5036280;28;20013;-79
2022/01/17 07:59:10;;;;;;;12.90;2.30;;;7.00;99.90;;;;;;5036633;28;20508;-79
2022/01/17 08:01:37;;;;;;;14.85;2.92;;;7.00;99.90;;;;;;5043594;28;20472;-79
2022/01/17 08:04:05;;;;;;;21.05;3.50;;;7.10;99.90;;;;;;5046400;28;20488;-79
2022/01/17 08:06:32;;;;;;;12.50;2.75;;;7.10;99.90;;;;;;5035138;28;20204;-79
2022/01/17 08:08:58;;;;;;;33.03;3.13;;;7.10;99.90;;;;;;5033738;28;20024;-78
2022/01/17 08:11:24;;;;;;;25.45;2.78;;;7.20;99.90;;;;;;5032142;28;20021;-79
2022/01/17 08:13:49;;;;;;;16.30;1.70;;;7.20;99.90;;;;;;5047222;28;20060;-79
2022/01/17 08:16:15;;;;;;;17.98;2.30;;;7.20;99.90;;;;;;5052983;28;20108;-79
2022/01/17 08:18:41;;;;;;;15.80;2.50;;;7.20;99.90;;;;;;5053109;28;20021;-79
2022/01/17 08:21:08;;;;;;;20.25;2.45;;;7.30;99.90;;;;;;5053255;28;20036;-78
2022/01/17 08:23:33;;;;;;;24.73;2.88;;;7.20;99.90;;;;;;5053161;28;20032;-78
2022/01/17 08:25:59;;;;;;;21.65;2.60;;;7.30;99.90;;;;;;5053902;28;20025;-78
2022/01/17 08:28:24;;;;;;;25.92;3.38;;;7.30;99.90;;;;;;5057055;28;20079;-78
2022/01/17 08:30:50;;;;;;;18.13;2.90;;;7.30;99.90;;;;;;5055030;28;20524;-78
2022/01/17 08:33:16;;;;;;;24.88;3.80;;;7.30;99.90;;;;;;5054564;28;20033;-79
2022/01/17 08:35:41;;;;;;;22.13;2.47;;;7.50;99.90;;;;;;5054673;28;20021;-78
2022/01/17 08:38:07;;;;;;;21.73;3.10;;;7.60;99.90;;;;;;5053801;28;20017;-79
2022/01/17 08:40:32;;;;;;;17.08;2.42;;;7.60;99.90;;;;;;5053630;28;20024;-79
2022/01/17 08:42:58;;;;;;;33.50;3.33;;;7.60;99.90;;;;;;5054340;28;20021;-78
2022/01/17 08:45:26;;;;;;;21.33;2.05;;;7.60;99.60;;;;;;5054534;28;20025;-79
2022/01/17 08:47:52;;;;;;;13.73;2.25;;;7.70;38.80;;;;;;5054268;28;20018;-79
2022/01/17 08:50:20;;;;;;;18.42;2.92;;;7.90;1.00;;;;;;5054218;28;20075;-79
2022/01/17 08:52:47;;;;;;;24.10;3.40;;;7.90;1.00;;;;;;5053309;28;20225;-78
2022/01/17 08:55:15;;;;;;;20.92;3.10;;;7.80;1.00;;;;;;5053484;28;20024;-78
2022/01/17 08:57:40;;;;;;;18.50;2.70;;;7.90;1.00;;;;;;5053621;28;20120;-78
2022/01/17 09:00:10;;;;;;;23.38;2.58;;;8.10;1.00;;;;;;5053854;28;20537;-78
2022/01/17 09:02:36;;;;;;;24.83;3.22;;;8.20;99.90;;;;;;5053553;28;20053;-79
2022/01/17 09:05:02;;;;;;;20.83;2.58;;;8.30;99.90;;;;;;5053558;28;20425;-79
2022/01/17 09:07:28;;;;;;;15.68;2.38;;;8.30;99.90;;;;;;5053531;28;20017;-79
2022/01/17 09:09:53;;;;;;;22.85;3.63;;;8.30;99.90;;;;;;5052669;28;20119;-78
2022/01/17 09:12:19;;;;;;;21.40;2.78;;;8.30;99.90;;;;;;5053615;28;20056;-79
2022/01/17 09:14:44;;;;;;;13.95;2.50;;;8.30;99.90;;;;;;5053836;28;20021;-79
2022/01/17 09:17:10;;;;;;;24.38;3.63;;;8.30;99.90;;;;;;5054202;28;20467;-79
2022/01/17 09:19:37;;;;;;;14.43;1.67;;;8.30;99.90;;;;;;5053369;28;20434;-79
2022/01/17 09:22:04;;;;;;;18.20;2.30;;;8.30;99.90;;;;;;5053837;28;20092;-78
2022/01/17 09:24:29;;;;;;;23.38;4.03;;;8.40;99.90;;;;;;5053629;28;20487;-78
2022/01/17 09:26:55;;;;;;;22.52;2.88;;;8.50;99.90;;;;;;5053539;28;20024;-79
2022/01/17 09:29:20;;;;;;;21.52;2.67;;;8.60;99.90;;;;;;5053466;28;20040;-79
2022/01/17 09:31:46;;;;;;;27.48;3.42;;;8.60;99.90;;;;;;5053512;28;20494;-79
2022/01/17 09:34:12;;;;;;;17.20;2.75;;;8.60;99.90;;;;;;5053262;28;20094;-79
2022/01/17 09:36:38;;;;;;;10.18;2.40;;;8.70;99.90;;;;;;5052884;28;20017;-79
2022/01/17 09:39:05;;;;;;;19.88;2.78;;;8.90;99.90;;;;;;5053376;28;20025;-79
2022/01/17 09:41:31;;;;;;;24.23;4.00;;;9.20;99.90;;;;;;5053334;28;20021;-79
2022/01/17 09:43:57;;;;;;;19.40;2.85;;;9.20;99.90;;;;;;5052941;28;20033;-79
2022/01/17 09:46:27;;;;;;;20.08;3.78;;;9.10;99.90;;;;;;5052590;28;20469;-79
2022/01/17 09:49:01;;;;;;;16.45;2.13;;;9.00;99.90;;;;;;5053634;28;20013;-79
2022/01/17 09:51:51;;;;;;;14.82;2.55;;;9.00;99.90;;;;;;5053224;28;20121;-79
2022/01/17 09:54:20;;;;;;;10.88;1.95;;;9.20;99.90;;;;;;5053193;28;20037;-79
2022/01/17 09:56:50;;;;;;;13.85;1.95;;;9.20;99.90;;;;;;5053006;28;20033;-79
2022/01/17 09:59:16;;;;;;;22.30;2.60;;;9.00;99.90;;;;;;5055214;28;20031;-79
2022/01/17 10:01:42;;;;;;;18.95;2.65;;;8.90;99.90;;;;;;5054258;28;20029;-79
2022/01/17 10:04:09;;;;;;;10.43;1.90;;;8.90;99.90;;;;;;5053160;28;20104;-78
2022/01/17 10:06:35;;;;;;;16.33;2.97;;;9.20;99.90;;;;;;5052732;28;20297;-79
2022/01/17 10:09:24;;;;;;;24.73;3.30;;;9.40;99.90;;;;;;5052617;28;20021;-79
2022/01/17 10:12:05;;;;;;;15.95;2.20;;;9.40;99.90;;;;;;5051200;28;20382;-79
2022/01/17 10:15:01;;;;;;;17.10;2.88;;;9.30;99.90;;;;;;5052629;28;20025;-79
2022/01/17 10:17:46;;;;;;;12.70;1.63;;;9.70;99.90;;;;;;5052792;28;20504;-78
2022/01/17 10:20:16;;;;;;;12.32;2.30;;;9.90;99.90;;;;;;5051166;28;20448;-79
2022/01/17 10:22:57;;;;;;;14.77;2.83;;;9.70;99.90;;;;;;5052622;28;20021;-79
2022/01/17 10:28:15;;;;;;;20.13;3.28;;;9.50;99.90;;;;;;5042352;28;20075;-78
2022/01/17 10:31:00;;;;;;;16.17;2.38;;;9.50;99.90;;;;;;5052104;28;20087;-79
2022/01/17 10:36:16;;;;;;;23.23;3.58;;;10.10;99.90;;;;;;5052356;28;20151;-79
2022/01/17 10:38:42;;;;;;;20.02;2.97;;;10.00;99.90;;;;;;5051844;28;20108;-79
2022/01/17 10:41:07;;;;;;;21.05;3.20;;;9.80;99.90;;;;;;5051140;28;20037;-78
2022/01/17 10:43:42;;;;;;;16.42;4.55;;;9.60;99.90;;;;;;5052510;28;20071;-79
2022/01/17 10:46:12;;;;;;;23.08;4.53;;;9.80;99.90;;;;;;5052248;28;20033;-79
2022/01/17 10:48:41;;;;;;;27.25;4.47;;;10.10;95.00;;;;;;5051027;28;20440;-79
2022/01/17 10:51:09;;;;;;;19.23;3.10;;;10.10;99.90;;;;;;5051651;28;20146;-78
2022/01/17 10:53:37;;;;;;;20.00;2.40;;;10.20;99.90;;;;;;5050366;28;20067;-79
2022/01/17 10:56:08;;;;;;;12.75;3.20;;;10.00;99.90;;;;;;5050661;28;20106;-78
2022/01/17 10:58:36;;;;;;;21.17;3.03;;;10.10;98.80;;;;;;5052062;28;20028;-79
2022/01/17 11:01:05;;;;;;;26.15;4.60;;;10.10;99.90;;;;;;5051866;28;20104;-79
2022/01/17 11:03:34;;;;;;;11.90;3.13;;;10.10;91.20;;;;;;5051609;28;20033;-79
2022/01/17 11:06:09;;;;;;;25.13;3.45;;;9.90;99.90;;;;;;5051633;28;20633;-78
2022/01/17 11:08:36;;;;;;;25.02;3.60;;;9.80;99.90;;;;;;5051961;28;20025;-79
2022/01/17 11:11:07;;;;;;;26.73;3.58;;;9.90;99.90;;;;;;5051487;28;20079;-79
2022/01/17 11:13:35;;;;;;;14.02;2.55;;;10.00;99.90;;;;;;5051345;28;20124;-79
2022/01/17 11:16:07;;;;;;;14.27;3.35;;;9.90;99.90;;;;;;5051386;28;20017;-79
2022/01/17 11:18:35;;;;;;;19.33;4.03;;;9.80;99.90;;;;;;5050403;28;20033;-79
2022/01/17 11:21:11;;;;;;;15.10;3.17;;;9.50;99.90;;;;;;5051634;28;20024;-79
2022/01/17 11:23:38;;;;;;;19.05;3.08;;;9.40;99.90;;;;;;5051786;28;20523;-79
2022/01/17 11:26:06;;;;;;;21.08;3.13;;;9.40;99.90;;;;;;5051097;28;20090;-79
2022/01/17 11:28:34;;;;;;;30.55;4.70;;;9.40;99.90;;;;;;5052896;28;20105;-78
2022/01/17 11:31:02;;;;;;;27.63;4.13;;;9.40;99.90;;;;;;5051292;28;20021;-79
2022/01/17 11:33:27;;;;;;;18.63;2.90;;;9.40;99.90;;;;;;5051199;28;20120;-79
2022/01/17 11:35:54;;;;;;;25.88;4.20;;;9.40;99.90;;;;;;5051004;28;20060;-79
2022/01/17 11:38:29;;;;;;;15.57;3.17;;;9.40;99.90;;;;;;5051251;28;20035;-79
2022/01/17 11:40:56;;;;;;;23.55;3.95;;;9.40;99.90;;;;;;5039836;28;20021;-79
2022/01/17 11:43:23;;;;;;;16.13;2.45;;;9.40;99.90;;;;;;5031323;28;20128;-79
2022/01/17 11:45:51;;;;;;;38.13;5.18;;;9.40;99.90;;;;;;5038988;28;20021;-79
2022/01/17 11:48:26;;;;;;;27.40;3.83;;;9.40;99.90;;;;;;5036869;28;20067;-79
2022/01/17 11:50:54;;;;;;;28.45;4.90;;;9.40;99.90;;;;;;5061909;28;20029;-79
2022/01/17 11:53:36;;;;;;;13.80;3.10;;;9.40;99.90;;;;;;5032104;28;20387;-80
2022/01/17 11:56:02;;;;;;;21.75;3.92;;;9.40;99.90;;;;;;5033842;28;20113;-79
2022/01/17 11:58:30;;;;;;;28.35;5.63;;;9.40;99.90;;;;;;5029136;28;20121;-79
2022/01/17 12:01:01;;;;;;;37.58;5.35;;;9.40;99.90;;;;;;5030002;28;20100;-79
2022/01/17 12:03:37;;;;;;;35.30;4.85;;;9.30;99.90;;;;;;5030620;28;20481;-79
2022/01/17 12:06:16;;;;;;;28.02;4.80;;;9.40;99.90;;;;;;5029630;28;20045;-79
2022/01/17 12:08:41;;;;;;;19.50;3.05;;;9.40;99.90;;;;;;5032652;28;20026;-79
2022/01/17 12:11:07;;;;;;;29.77;4.35;;;9.40;99.90;;;;;;5030362;28;20041;-79
2022/01/17 12:13:43;;;;;;;14.88;4.10;;;9.50;99.90;;;;;;5029126;28;20144;-79
2022/01/17 12:16:31;;;;;;;32.40;4.63;;;9.50;99.90;;;;;;5030216;28;20022;-79
2022/01/17 12:18:56;;;;;;;24.02;4.05;;;9.70;99.90;;;;;;5041826;28;20024;-79
2022/01/17 12:21:32;;;;;;;28.85;3.95;;;9.60;99.90;;;;;;5032010;28;20029;-79
2022/01/17 12:24:21;;;;;;;32.30;3.70;;;9.50;99.90;;;;;;5032646;28;20030;-79
2022/01/17 12:27:00;;;;;;;33.58;4.65;;;9.70;99.90;;;;;;5036115;28;20465;-79
2022/01/17 12:29:54;;;;;;;26.77;4.50;;;9.60;99.90;;;;;;5032415;28;20037;-79
2022/01/17 12:32:20;;;;;;;36.13;5.55;;;9.60;99.90;;;;;;5020231;28;20036;-79
2022/01/17 12:34:46;;;;;;;27.83;4.35;;;9.50;99.90;;;;;;5049955;28;20029;-79
2022/01/17 12:37:36;;;;;;;32.53;4.65;;;9.50;99.90;;;;;;5049808;28;20025;-79
2022/01/17 12:40:17;;;;;;;29.55;3.78;;;9.30;99.90;;;;;;5049616;28;20036;-79
2022/01/17 12:43:11;;;;;;;34.65;5.47;;;9.30;99.90;;;;;;5049836;28;20017;-78
2022/01/17 12:45:39;;;;;;;33.65;5.75;;;9.40;99.90;;;;;;5048232;28;20028;-79
2022/01/17 12:48:19;;;;;;;28.27;3.65;;;9.30;99.90;;;;;;5050134;28;20094;-79
2022/01/17 12:50:47;;;;;;;24.10;3.70;;;9.30;99.90;;;;;;5049874;28;20233;-79
2022/01/17 12:53:16;;;;;;;32.03;5.32;;;9.30;99.90;;;;;;5049853;28;20036;-79
2022/01/17 12:55:50;;;;;;;25.10;4.40;;;9.30;99.90;;;;;;5032175;28;20028;-78
2022/01/17 12:58:22;;;;;;;39.88;5.43;;;9.40;99.90;;;;;;5029877;28;20032;-79
2022/01/17 13:00:54;;;;;;;42.30;4.18;;;9.50;99.90;;;;;;5029847;28;20025;-79
2022/01/17 13:03:23;;;;;;;28.52;3.72;;;9.60;99.90;;;;;;5028545;28;20113;-79
2022/01/17 13:05:50;;;;;;;25.38;3.85;;;9.70;99.90;;;;;;5027303;28;20052;-79
2022/01/17 13:08:16;;;;;;;30.90;3.80;;;9.70;99.90;;;;;;5029938;28;20026;-79
2022/01/17 13:10:42;;;;;;;29.02;4.72;;;9.60;99.90;;;;;;5045981;28;20086;-79
2022/01/17 13:13:15;;;;;;;27.95;3.67;;;9.50;99.90;;;;;;5051629;28;20061;-79
2022/01/17 13:16:17;;;;;;;32.85;4.68;;;9.50;99.90;;;;;;5053639;28;20032;-79
2022/01/17 13:18:44;;;;;;;26.70;3.90;;;9.80;99.90;;;;;;5050824;28;20488;-79
2022/01/17 13:21:10;;;;;;;24.30;4.18;;;9.80;99.90;;;;;;5052480;28;20040;-79
2022/01/17 13:23:48;;;;;;;20.52;4.10;;;9.80;99.90;;;;;;5052619;28;20021;-79
2022/01/17 13:26:17;;;;;;;12.13;2.67;;;9.70;99.90;;;;;;5052455;28;20162;-79